Главная страница
METAR-TAF:

METAR-TAF

Аэропорты :

Форт-Сент-Джон, Британская Колумбия, Канада

широта: 56-14N, долгота: 120-44W, высота над уровнем моря: 695 м

Текущие метеонаблюдения

Эта сводка был подготовлена 36 минут назад, в 04:00 UTC
Ветер 8 Узел от восточный
Температура 11°C
Влажность 47%
Давление 1016 hPa
Видимость: 56.3 км
небольшая облачность на высоте 24000 фута

METAR: CYXJ 270400Z 09008KT 35SM FEW240 11/M00 A3001 RMK CI2 SLP181 DENSITY ALT 2300FT

Время: 21:36 (04:36 UTC)

Прогноз

Эта сводка был подготовлена 3 часа и 58 минут назад, в 00:38 UTC
Прогноз действительный с 27-го 01 UTC до 27-го 13 UTC
Ветер 7 Узел от восточный
Видимость: 10 км
небольшая облачность на высоте 22000 фута

TAF: CYXJ 270038Z 2701/2713 09007KT P6SM FEW220 RMK NXT FCST BY 270700Z

Метеонаблюдения и прогнозы для более 4000 аэропортов (сводки METAR и TAF).

Имеющиеся станции представлены на карте желтыми и красными точками.

Чтобы увидеть название станции, наведите на нее мышь.

Затем щелкните, чтобы увидеть метеонаблюдения и метеопрогнозы.

Управление картой: чтобы увеличить масштаб, щелкните зеленые кнопки с черным крестиком; чтобы уменьшить масштаб, щелкните зеленую кнопку с тире; для просмотра соседних карт щелкайте зеленые стрелки.


METAR-TAF: